createdAt,value
2022-11-14T00:00:21.068Z,68.44
2022-11-14T00:01:40.976Z,68.39
2022-11-14T00:03:01.673Z,68.35
2022-11-14T00:04:26.794Z,68.01
2022-11-14T00:05:49.667Z,68.08
2022-11-14T00:07:09.823Z,68.00
2022-11-14T00:08:30.034Z,68.06
2022-11-14T00:09:50.131Z,68.11
2022-11-14T00:11:10.020Z,67.75
2022-11-14T00:12:30.236Z,67.77
2022-11-14T00:13:50.540Z,68.07
2022-11-14T00:15:10.726Z,68.12
2022-11-14T00:16:30.521Z,68.18
2022-11-14T00:17:50.676Z,68.13
2022-11-14T00:19:10.676Z,68.33
2022-11-14T00:20:31.693Z,68.29
2022-11-14T00:21:53.393Z,68.50
2022-11-14T00:23:13.520Z,68.60
2022-11-14T00:24:33.519Z,68.55
2022-11-14T00:25:53.545Z,68.39
2022-11-14T00:27:13.521Z,68.39
2022-11-14T00:28:33.697Z,68.35
2022-11-14T00:29:54.118Z,68.07
2022-11-14T00:31:13.979Z,68.13
2022-11-14T00:32:34.102Z,68.29
2022-11-14T00:33:54.352Z,68.27
2022-11-14T00:35:14.670Z,68.20
2022-11-14T00:36:34.789Z,68.18
2022-11-14T00:37:54.923Z,68.33
2022-11-14T00:39:14.911Z,68.16
2022-11-14T00:40:35.171Z,68.34
2022-11-14T00:41:54.957Z,68.29
2022-11-14T00:43:14.912Z,68.02
2022-11-14T00:44:35.090Z,68.05
2022-11-14T00:45:55.242Z,67.86
2022-11-14T00:47:15.290Z,67.58
2022-11-14T00:48:35.557Z,68.03
2022-11-14T00:49:55.435Z,68.06
2022-11-14T00:51:15.628Z,67.90
2022-11-14T00:52:35.416Z,68.01
2022-11-14T00:53:55.559Z,68.01
2022-11-14T00:55:15.454Z,67.88
2022-11-14T00:56:35.609Z,67.67
2022-11-14T00:57:55.888Z,67.45
2022-11-14T00:59:15.837Z,67.66
2022-11-14T01:00:35.980Z,67.55
2022-11-14T01:01:58.058Z,67.55
2022-11-14T01:03:18.370Z,67.70
2022-11-14T01:04:38.605Z,67.55
2022-11-14T01:06:01.252Z,67.51
2022-11-14T01:07:21.121Z,67.40
2022-11-14T01:08:41.474Z,67.45
2022-11-14T01:10:01.340Z,67.41
2022-11-14T01:11:21.792Z,67.43
2022-11-14T01:12:41.979Z,67.38
2022-11-14T01:14:01.812Z,67.42
2022-11-14T01:15:21.906Z,67.39
2022-11-14T01:16:42.098Z,67.49
2022-11-14T01:18:02.245Z,67.54
2022-11-14T01:19:22.156Z,67.52
2022-11-14T01:20:42.922Z,67.60
2022-11-14T01:22:06.182Z,67.57
2022-11-14T01:23:26.823Z,67.68
2022-11-14T01:24:46.796Z,67.55
2022-11-14T01:26:10.802Z,67.74
2022-11-14T01:27:31.019Z,67.61
2022-11-14T01:28:51.101Z,67.90
2022-11-14T01:30:11.481Z,67.74
2022-11-14T01:31:31.241Z,67.88
2022-11-14T01:32:51.193Z,67.95
2022-11-14T01:34:11.401Z,68.04
2022-11-14T01:35:32.182Z,68.16
2022-11-14T01:36:52.501Z,68.47
2022-11-14T01:38:13.638Z,68.05
2022-11-14T01:39:33.506Z,67.85
2022-11-14T01:40:53.861Z,67.81
2022-11-14T01:42:13.701Z,67.97
2022-11-14T01:43:34.381Z,67.89
2022-11-14T01:44:54.329Z,67.66
2022-11-14T01:46:24.502Z,67.86
2022-11-14T01:47:44.320Z,67.83
2022-11-14T01:49:04.497Z,67.84
2022-11-14T01:50:24.770Z,68.11
2022-11-14T01:52:02.503Z,68.27
2022-11-14T01:53:22.737Z,68.07
2022-11-14T01:54:44.285Z,68.45
2022-11-14T01:56:04.624Z,68.13
2022-11-14T01:57:29.201Z,67.75
2022-11-14T01:58:50.422Z,67.99
2022-11-14T02:00:11.130Z,67.99
2022-11-14T02:01:31.715Z,68.17
2022-11-14T02:02:51.823Z,68.17
2022-11-14T02:04:15.217Z,68.10
2022-11-14T02:05:35.343Z,68.13
2022-11-14T02:06:56.042Z,68.13
2022-11-14T02:08:16.146Z,68.12
2022-11-14T02:09:36.656Z,68.12
2022-11-14T02:10:56.600Z,67.96
2022-11-14T02:12:17.055Z,68.00
2022-11-14T02:13:37.237Z,67.97
2022-11-14T02:14:57.340Z,67.90
2022-11-14T02:16:17.341Z,68.01
2022-11-14T02:17:37.554Z,67.98
2022-11-14T02:18:57.779Z,67.98
2022-11-14T02:20:21.690Z,68.05
2022-11-14T02:21:41.767Z,68.11
2022-11-14T02:23:02.067Z,68.02
2022-11-14T02:24:22.065Z,68.03
2022-11-14T02:25:42.127Z,68.09
2022-11-14T02:27:02.512Z,68.04
2022-11-14T02:28:23.255Z,68.07
2022-11-14T02:29:43.219Z,68.09
2022-11-14T02:31:03.168Z,68.15
2022-11-14T02:32:23.248Z,68.16
2022-11-14T02:33:43.284Z,68.24
2022-11-14T02:35:03.444Z,68.25
2022-11-14T02:36:23.575Z,68.29
2022-11-14T02:37:43.750Z,68.06
2022-11-14T02:39:03.886Z,68.20
2022-11-14T02:40:24.250Z,68.37
2022-11-14T02:41:44.531Z,68.24
2022-11-14T02:43:12.655Z,68.29
2022-11-14T02:44:32.635Z,68.29
2022-11-14T02:45:52.866Z,68.32
2022-11-14T02:47:13.012Z,68.37
2022-11-14T02:48:33.318Z,68.50
2022-11-14T02:49:53.196Z,68.63
2022-11-14T02:51:13.090Z,68.52
2022-11-14T02:52:33.249Z,68.53
2022-11-14T02:53:53.412Z,68.60
2022-11-14T02:55:13.761Z,68.61
2022-11-14T02:56:33.942Z,68.84
2022-11-14T02:57:54.092Z,68.75
2022-11-14T02:59:14.212Z,68.81
2022-11-14T03:00:34.446Z,68.79
2022-11-14T03:01:54.407Z,68.64
2022-11-14T03:03:14.479Z,68.80
2022-11-14T03:04:34.615Z,69.11
2022-11-14T03:05:58.654Z,69.07
2022-11-14T03:07:18.890Z,69.11
2022-11-14T03:08:38.847Z,69.11
2022-11-14T03:09:58.614Z,69.30
2022-11-14T03:11:18.470Z,69.14
2022-11-14T03:12:38.949Z,69.19
2022-11-14T03:13:59.502Z,69.36
2022-11-14T03:15:19.403Z,69.38
2022-11-14T03:16:39.628Z,69.31
2022-11-14T03:17:59.664Z,69.42
2022-11-14T03:19:19.547Z,69.18
2022-11-14T03:20:39.419Z,69.51
2022-11-14T03:21:59.553Z,69.09
2022-11-14T03:23:19.595Z,69.34
2022-11-14T03:24:39.677Z,69.22
2022-11-14T03:26:00.989Z,69.14
2022-11-14T03:27:20.976Z,69.31
2022-11-14T03:28:41.066Z,69.33
2022-11-14T03:30:00.845Z,69.36
2022-11-14T03:31:20.733Z,69.17
2022-11-14T03:32:40.718Z,69.45
2022-11-14T03:34:00.956Z,69.51
2022-11-14T03:35:20.898Z,69.56
2022-11-14T03:36:41.164Z,69.66
2022-11-14T03:38:01.356Z,69.67
2022-11-14T03:39:21.409Z,69.75
2022-11-14T03:40:41.478Z,69.66
2022-11-14T03:42:01.273Z,69.72
2022-11-14T03:43:21.647Z,69.86
2022-11-14T03:44:41.818Z,70.05
2022-11-14T03:46:02.386Z,69.65
2022-11-14T03:47:22.503Z,69.70
2022-11-14T03:48:42.592Z,69.64
2022-11-14T03:50:02.827Z,69.56
2022-11-14T03:51:22.938Z,69.75
2022-11-14T03:52:43.057Z,69.59
2022-11-14T03:54:03.115Z,69.69
2022-11-14T03:55:23.306Z,69.84
2022-11-14T03:56:43.420Z,69.79
2022-11-14T03:58:03.658Z,69.90
2022-11-14T03:59:23.761Z,69.81
2022-11-14T04:00:44.075Z,69.80
2022-11-14T04:02:04.523Z,69.82
2022-11-14T04:03:24.904Z,69.73
2022-11-14T04:04:44.914Z,69.97
2022-11-14T04:06:05.197Z,69.85
2022-11-14T04:07:25.116Z,69.94
2022-11-14T04:08:45.257Z,69.85
2022-11-14T04:10:05.458Z,70.14
2022-11-14T04:11:25.342Z,69.97
2022-11-14T04:12:49.131Z,69.92
2022-11-14T04:14:09.662Z,69.85
2022-11-14T04:15:29.667Z,69.97
2022-11-14T04:16:49.987Z,70.01
2022-11-14T04:18:09.884Z,69.88
2022-11-14T04:19:29.853Z,70.04
2022-11-14T04:20:50.022Z,70.13
2022-11-14T04:22:10.284Z,69.83
2022-11-14T04:23:30.504Z,69.91
2022-11-14T04:24:50.542Z,70.09
2022-11-14T04:26:10.713Z,70.03
2022-11-14T04:27:30.865Z,69.92
2022-11-14T04:28:51.013Z,70.27
2022-11-14T04:30:11.227Z,70.31
2022-11-14T04:31:31.337Z,70.44
2022-11-14T04:32:51.637Z,70.46
2022-11-14T04:34:11.484Z,70.41
2022-11-14T04:35:31.554Z,70.38
2022-11-14T04:36:51.736Z,70.67
2022-11-14T04:38:11.658Z,70.30
2022-11-14T04:39:32.248Z,70.24
2022-11-14T04:40:52.394Z,70.61
2022-11-14T04:42:12.729Z,70.26
2022-11-14T04:43:32.877Z,70.38
2022-11-14T04:44:53.051Z,70.38
2022-11-14T04:46:13.208Z,70.03
2022-11-14T04:47:33.176Z,70.08
2022-11-14T04:48:53.373Z,70.14
2022-11-14T04:50:13.733Z,70.05
2022-11-14T04:51:33.898Z,69.93
2022-11-14T04:52:54.210Z,70.02
2022-11-14T04:54:14.417Z,69.98
2022-11-14T04:55:34.600Z,70.15
2022-11-14T04:56:54.856Z,70.23
2022-11-14T04:58:14.918Z,70.11
2022-11-14T04:59:35.467Z,70.05
2022-11-14T05:00:57.902Z,70.09
2022-11-14T05:02:18.186Z,70.35
2022-11-14T05:03:38.422Z,70.33
2022-11-14T05:04:58.712Z,70.07
2022-11-14T05:06:18.794Z,70.41
2022-11-14T05:07:38.811Z,70.29
2022-11-14T05:08:59.077Z,70.12
2022-11-14T05:10:19.047Z,69.93
2022-11-14T05:11:39.095Z,69.70
2022-11-14T05:12:59.226Z,69.50
2022-11-14T05:14:19.013Z,69.90
2022-11-14T05:15:38.954Z,70.43
2022-11-14T05:16:59.047Z,70.96
2022-11-14T05:18:19.113Z,71.19
2022-11-14T05:19:39.057Z,71.12
2022-11-14T05:20:59.808Z,71.34
2022-11-14T05:22:20.343Z,71.58
2022-11-14T05:23:40.552Z,71.56
2022-11-14T05:25:00.468Z,71.12
2022-11-14T05:26:20.554Z,70.95
2022-11-14T05:27:40.804Z,71.08
2022-11-14T05:29:00.854Z,71.12
2022-11-14T05:30:21.058Z,71.12
2022-11-14T05:31:41.095Z,71.02
2022-11-14T05:33:00.990Z,71.07
2022-11-14T05:34:21.062Z,70.95
2022-11-14T05:35:41.134Z,70.84
2022-11-14T05:37:03.742Z,70.63
2022-11-14T05:38:23.836Z,70.63
2022-11-14T05:39:43.994Z,70.56
2022-11-14T05:41:07.367Z,70.58
2022-11-14T05:42:27.782Z,70.73
2022-11-14T05:43:48.226Z,70.84
2022-11-14T05:45:08.607Z,70.70
2022-11-14T05:46:28.450Z,70.57
2022-11-14T05:47:48.670Z,70.51
2022-11-14T05:49:08.938Z,70.35
2022-11-14T05:50:29.241Z,70.83
2022-11-14T05:51:49.486Z,70.67
2022-11-14T05:53:09.581Z,70.77
2022-11-14T05:54:29.632Z,70.77
2022-11-14T05:55:49.780Z,70.88
2022-11-14T05:57:09.656Z,70.58
2022-11-14T05:58:31.121Z,70.42
2022-11-14T05:59:51.207Z,70.54
2022-11-14T06:01:12.419Z,70.27
2022-11-14T06:02:32.721Z,70.45
2022-11-14T06:03:52.654Z,70.30
2022-11-14T06:05:12.532Z,69.98
2022-11-14T06:06:32.398Z,69.84
2022-11-14T06:07:56.454Z,69.86
2022-11-14T06:09:16.882Z,69.86
2022-11-14T06:10:36.738Z,69.99
2022-11-14T06:11:56.874Z,69.84
2022-11-14T06:13:16.709Z,69.83
2022-11-14T06:14:36.903Z,69.86
2022-11-14T06:16:01.101Z,69.85
2022-11-14T06:17:21.149Z,70.00
2022-11-14T06:18:41.329Z,70.06
2022-11-14T06:20:01.392Z,70.00
2022-11-14T06:21:22.056Z,69.87
2022-11-14T06:22:42.432Z,69.92
2022-11-14T06:24:02.848Z,70.16
2022-11-14T06:25:23.082Z,70.29
2022-11-14T06:26:43.249Z,70.40
2022-11-14T06:28:03.162Z,70.43
2022-11-14T06:29:22.803Z,70.57
2022-11-14T06:30:42.896Z,70.80
2022-11-14T06:32:02.655Z,70.94
2022-11-14T06:33:22.489Z,71.22
2022-11-14T06:34:42.705Z,71.17
2022-11-14T06:36:06.022Z,71.40
2022-11-14T06:37:28.393Z,71.48
2022-11-14T06:38:50.495Z,71.34
2022-11-14T06:40:10.843Z,71.02
2022-11-14T06:41:30.799Z,70.82
2022-11-14T06:42:51.159Z,70.77
2022-11-14T06:44:11.511Z,70.84
2022-11-14T06:45:31.678Z,71.14
2022-11-14T06:46:51.677Z,71.01
2022-11-14T06:48:11.391Z,70.98
2022-11-14T06:49:33.342Z,70.79
2022-11-14T06:50:55.543Z,70.94
2022-11-14T06:52:15.726Z,71.04
2022-11-14T06:53:36.504Z,70.97
2022-11-14T06:54:56.362Z,70.96
2022-11-14T06:56:16.830Z,70.82
2022-11-14T06:57:36.933Z,71.28
2022-11-14T06:58:57.117Z,71.94
2022-11-14T07:00:17.546Z,71.79
2022-11-14T07:01:37.507Z,71.78
2022-11-14T07:02:57.855Z,71.82
2022-11-14T07:04:18.163Z,71.87
2022-11-14T07:05:38.117Z,71.88
2022-11-14T07:06:58.077Z,71.58
2022-11-14T07:08:20.976Z,71.60
2022-11-14T07:09:41.095Z,71.51
2022-11-14T07:11:02.458Z,71.15
2022-11-14T07:12:22.282Z,71.17
2022-11-14T07:13:42.469Z,71.13
2022-11-14T07:15:03.381Z,71.30
2022-11-14T07:16:26.908Z,71.24
2022-11-14T07:17:48.549Z,71.32
2022-11-14T07:19:12.414Z,71.05
2022-11-14T07:20:32.453Z,71.31
2022-11-14T07:21:52.611Z,71.15
2022-11-14T07:23:12.874Z,71.07
2022-11-14T07:24:33.225Z,71.23
2022-11-14T07:25:53.444Z,71.19
2022-11-14T07:27:13.366Z,71.06
2022-11-14T07:28:36.826Z,71.08
2022-11-14T07:29:57.184Z,70.79
2022-11-14T07:31:17.678Z,71.09
2022-11-14T07:32:37.624Z,71.37
2022-11-14T07:33:57.834Z,71.27
2022-11-14T07:35:17.855Z,71.07
2022-11-14T07:36:37.941Z,71.14
2022-11-14T07:38:01.242Z,71.20
2022-11-14T07:39:21.193Z,71.24
2022-11-14T07:40:41.400Z,71.25
2022-11-14T07:42:01.455Z,71.17
2022-11-14T07:43:21.490Z,71.15
2022-11-14T07:44:41.414Z,71.20
2022-11-14T07:46:02.282Z,71.09
2022-11-14T07:47:22.475Z,71.10
2022-11-14T07:48:42.623Z,70.99
2022-11-14T07:50:02.726Z,71.17
2022-11-14T07:51:22.690Z,71.46
2022-11-14T07:52:42.935Z,71.30
2022-11-14T07:54:03.009Z,71.17
2022-11-14T07:55:23.217Z,71.02
2022-11-14T07:56:43.496Z,71.00
2022-11-14T07:58:03.715Z,71.08
2022-11-14T07:59:24.087Z,71.19
2022-11-14T08:00:46.545Z,71.06
2022-11-14T08:02:06.741Z,71.09
2022-11-14T08:03:28.098Z,71.62
2022-11-14T08:04:49.930Z,71.62
2022-11-14T08:06:11.581Z,71.81
2022-11-14T08:07:33.400Z,71.86
2022-11-14T08:08:54.339Z,71.59
2022-11-14T08:10:16.726Z,71.70
2022-11-14T08:11:49.728Z,71.47
2022-11-14T08:13:40.863Z,71.59
2022-11-14T08:14:55.873Z,71.53
2022-11-14T08:16:18.004Z,71.58
2022-11-14T08:17:41.299Z,71.61
2022-11-14T08:19:03.079Z,71.78
2022-11-14T08:20:24.169Z,71.57
2022-11-14T08:21:45.844Z,71.60
2022-11-14T08:23:14.868Z,72.19
2022-11-14T08:24:36.166Z,72.54
2022-11-14T08:25:59.148Z,72.42
2022-11-14T08:27:21.152Z,72.46
2022-11-14T08:30:06.208Z,72.40
2022-11-14T08:31:35.069Z,73.19
2022-11-14T08:32:57.318Z,73.49
2022-11-14T08:34:17.402Z,73.46
2022-11-14T08:35:40.655Z,74.10
2022-11-14T08:37:03.432Z,74.08
2022-11-14T08:38:23.908Z,74.22
2022-11-14T08:39:43.857Z,74.07
2022-11-14T08:41:04.429Z,74.30
2022-11-14T08:42:31.359Z,74.30
2022-11-14T08:43:51.411Z,74.00
2022-11-14T08:45:11.474Z,73.84
2022-11-14T08:46:31.354Z,73.45
2022-11-14T08:47:54.968Z,74.03
2022-11-14T08:49:14.935Z,74.03
2022-11-14T08:50:43.730Z,73.72
2022-11-14T08:53:37.996Z,73.21
2022-11-14T08:54:57.814Z,72.92
2022-11-14T08:56:17.960Z,72.91
2022-11-14T08:57:37.759Z,72.73
2022-11-14T08:59:01.780Z,72.70
2022-11-14T09:00:34.016Z,72.66
2022-11-14T09:01:53.817Z,72.32
2022-11-14T09:03:16.861Z,72.23
2022-11-14T09:04:36.828Z,72.21
2022-11-14T09:05:59.819Z,72.05
2022-11-14T09:07:20.012Z,72.13
2022-11-14T09:08:46.001Z,71.94
2022-11-14T09:10:06.110Z,71.92
2022-11-14T09:11:41.480Z,71.78
2022-11-14T09:13:04.559Z,71.74
2022-11-14T09:14:24.916Z,71.76
2022-11-14T09:15:44.894Z,71.67
2022-11-14T09:17:06.157Z,71.83
2022-11-14T09:18:33.626Z,71.61
2022-11-14T09:19:54.212Z,71.51
2022-11-14T09:21:14.142Z,71.31
2022-11-14T09:22:37.946Z,71.63
2022-11-14T09:24:01.778Z,71.79
2022-11-14T09:25:22.770Z,71.88
2022-11-14T09:26:45.165Z,71.68
2022-11-14T09:28:08.968Z,71.41
2022-11-14T09:29:29.957Z,71.74
2022-11-14T09:30:49.815Z,71.47
2022-11-14T09:32:18.916Z,71.27
2022-11-14T09:33:38.973Z,71.38
2022-11-14T09:34:58.954Z,71.46
2022-11-14T09:36:19.783Z,71.19
2022-11-14T09:37:39.538Z,71.33
2022-11-14T09:39:05.305Z,71.30
2022-11-14T09:40:25.926Z,70.89
2022-11-14T09:42:06.367Z,70.66
2022-11-14T09:43:27.227Z,70.47
2022-11-14T09:44:55.921Z,71.02
2022-11-14T09:46:22.867Z,70.92
2022-11-14T09:47:45.881Z,70.51
2022-11-14T09:49:09.138Z,70.47
2022-11-14T09:50:37.281Z,70.47
2022-11-14T09:52:17.529Z,70.62
2022-11-14T09:53:47.109Z,70.13
2022-11-14T09:55:14.058Z,69.89
2022-11-14T09:56:34.234Z,70.07
2022-11-14T09:57:55.942Z,70.14
2022-11-14T09:59:22.015Z,70.67
2022-11-14T10:00:47.530Z,70.65
2022-11-14T10:02:19.286Z,70.33
2022-11-14T10:03:40.725Z,70.37
2022-11-14T10:05:19.100Z,69.97
2022-11-14T10:06:41.936Z,69.88
2022-11-14T10:08:20.895Z,69.77
2022-11-14T10:11:45.691Z,69.20
2022-11-14T10:13:08.614Z,70.01
2022-11-14T10:14:31.732Z,70.37
2022-11-14T10:15:56.749Z,71.13
2022-11-14T10:17:35.759Z,70.05
2022-11-14T10:19:11.166Z,69.69
2022-11-14T10:20:37.487Z,68.63
2022-11-14T10:22:16.115Z,68.29
2022-11-14T10:23:39.300Z,67.75
2022-11-14T10:25:07.302Z,68.08
2022-11-14T10:28:36.815Z,69.87
2022-11-14T10:30:03.547Z,69.93
2022-11-14T10:31:35.863Z,67.65
2022-11-14T10:33:02.699Z,66.28
2022-11-14T10:34:48.998Z,64.96
2022-11-14T10:36:14.974Z,65.92
2022-11-14T10:37:38.736Z,66.89
2022-11-14T10:39:13.132Z,67.37
2022-11-14T10:40:49.762Z,66.17
2022-11-14T10:42:11.662Z,67.06
2022-11-14T10:43:39.519Z,65.35
2022-11-14T10:45:11.582Z,66.87
2022-11-14T10:46:56.585Z,66.52
2022-11-14T10:48:33.391Z,63.41
2022-11-14T10:49:55.227Z,61.65
2022-11-14T10:51:17.164Z,63.25
2022-11-14T10:52:41.460Z,61.81
2022-11-14T10:54:12.544Z,59.40
2022-11-14T10:55:57.794Z,60.58
2022-11-14T10:57:28.191Z,61.20
2022-11-14T10:58:49.982Z,60.94
2022-11-14T11:00:23.121Z,60.92
2022-11-14T11:01:44.163Z,60.76
2022-11-14T11:03:04.271Z,58.94
2022-11-14T11:04:27.321Z,59.97
2022-11-14T11:05:53.542Z,60.34
2022-11-14T11:07:44.462Z,57.94
2022-11-14T11:09:26.922Z,59.61
2022-11-14T11:11:05.777Z,59.97
2022-11-14T11:12:34.818Z,59.89
2022-11-14T11:13:55.880Z,59.24
2022-11-14T11:15:18.025Z,59.03
2022-11-14T11:16:43.838Z,59.23
2022-11-14T11:18:05.102Z,58.33
2022-11-14T11:19:28.039Z,58.04
2022-11-14T11:20:48.254Z,59.04
2022-11-14T11:22:24.312Z,57.95
2022-11-14T11:23:55.219Z,58.63
2022-11-14T11:25:26.105Z,58.13
2022-11-14T11:26:47.006Z,58.44
2022-11-14T11:28:21.640Z,58.63
2022-11-14T11:29:41.608Z,59.40
2022-11-14T11:31:02.803Z,59.26
2022-11-14T11:32:29.410Z,59.26
2022-11-14T11:33:54.604Z,59.01
2022-11-14T11:35:17.674Z,59.38
2022-11-14T11:36:39.922Z,59.67
2022-11-14T11:38:02.795Z,59.83
2022-11-14T11:39:42.687Z,59.69
2022-11-14T11:41:15.617Z,59.12
2022-11-14T11:43:37.507Z,59.37
2022-11-14T11:44:48.327Z,59.63
2022-11-14T11:46:39.152Z,59.69
2022-11-14T11:48:13.423Z,59.79
2022-11-14T11:49:42.696Z,59.97
2022-11-14T11:51:04.657Z,60.45
2022-11-14T11:52:43.922Z,60.70
2022-11-14T11:54:04.592Z,61.37
2022-11-14T11:55:24.851Z,61.50
2022-11-14T11:56:45.526Z,61.85
2022-11-14T11:58:24.124Z,62.50
2022-11-14T11:59:45.626Z,62.43
2022-11-14T12:01:05.790Z,62.41
2022-11-14T12:02:28.492Z,63.01
2022-11-14T12:03:50.141Z,63.41
2022-11-14T12:05:39.015Z,63.23
2022-11-14T12:07:02.471Z,63.32
2022-11-14T12:08:31.953Z,63.39
2022-11-14T12:11:32.510Z,63.78
2022-11-14T12:12:52.524Z,63.55
2022-11-14T12:14:12.267Z,63.52
2022-11-14T12:15:35.350Z,63.79
2022-11-14T12:17:04.939Z,64.11
2022-11-14T12:18:35.081Z,63.76
2022-11-14T12:20:00.818Z,64.12
2022-11-14T12:21:20.763Z,64.25
2022-11-14T12:22:42.061Z,64.13
2022-11-14T12:24:02.284Z,64.11
2022-11-14T12:25:34.514Z,64.04
2022-11-14T12:27:20.412Z,63.90
2022-11-14T12:28:59.472Z,64.50
2022-11-14T12:30:33.170Z,64.36
2022-11-14T12:31:56.963Z,63.89
2022-11-14T12:33:22.989Z,64.31
2022-11-14T12:34:45.568Z,64.21
2022-11-14T12:36:06.456Z,64.42
2022-11-14T12:37:35.774Z,64.76
2022-11-14T12:38:58.622Z,64.27
2022-11-14T12:40:32.249Z,64.38
2022-11-14T12:42:00.431Z,63.99
2022-11-14T12:43:36.418Z,64.16
2022-11-14T12:44:59.793Z,63.81
2022-11-14T12:46:20.027Z,63.92
2022-11-14T12:48:03.088Z,63.76
2022-11-14T12:49:42.963Z,64.06
2022-11-14T12:51:03.637Z,64.31
2022-11-14T12:52:43.854Z,64.58
2022-11-14T12:54:03.697Z,64.85
2022-11-14T12:55:29.664Z,65.27
2022-11-14T12:56:59.751Z,65.71
2022-11-14T12:58:23.442Z,65.66
2022-11-14T12:59:49.894Z,65.47
2022-11-14T13:01:34.949Z,65.78
2022-11-14T13:04:50.154Z,65.88
2022-11-14T13:06:10.911Z,65.65
2022-11-14T13:07:37.047Z,65.58
2022-11-14T13:09:22.298Z,65.86
2022-11-14T13:10:54.079Z,65.51
2022-11-14T13:12:43.790Z,65.85
2022-11-14T13:14:25.611Z,65.70
2022-11-14T13:16:16.361Z,65.48
2022-11-14T13:17:55.083Z,65.50
2022-11-14T13:21:50.421Z,65.78
2022-11-14T13:23:25.736Z,66.00
2022-11-14T13:25:01.266Z,65.80
2022-11-14T13:26:21.242Z,66.07
2022-11-14T13:29:39.136Z,66.20
2022-11-14T13:31:18.011Z,66.40
2022-11-14T13:32:40.837Z,66.29
2022-11-14T13:34:20.040Z,66.56
2022-11-14T13:36:00.753Z,66.35
2022-11-14T13:37:33.007Z,66.30
2022-11-14T13:39:23.526Z,66.45
2022-11-14T13:40:53.357Z,66.22
2022-11-14T13:42:15.939Z,66.28
2022-11-14T13:43:41.791Z,66.37
2022-11-14T13:45:20.149Z,66.50
2022-11-14T13:47:01.399Z,66.32
2022-11-14T13:48:23.258Z,66.18
2022-11-14T13:50:03.401Z,66.02
2022-11-14T13:51:42.371Z,66.10
2022-11-14T13:53:03.302Z,66.34
2022-11-14T13:54:25.106Z,66.15
2022-11-14T13:55:51.170Z,66.27
2022-11-14T13:57:35.956Z,65.99
2022-11-14T13:59:05.100Z,66.14
2022-11-14T14:00:26.887Z,65.99
2022-11-14T14:02:04.780Z,65.99
2022-11-14T14:05:29.390Z,66.47
2022-11-14T14:07:07.931Z,66.69
2022-11-14T14:08:52.667Z,66.28
2022-11-14T14:10:21.675Z,66.42
2022-11-14T14:12:00.388Z,66.81
2022-11-14T14:13:43.387Z,66.88
2022-11-14T14:15:15.154Z,66.86
2022-11-14T14:16:36.656Z,67.03
2022-11-14T14:18:12.077Z,67.19
2022-11-14T14:19:48.349Z,67.52
2022-11-14T14:21:08.586Z,68.07
2022-11-14T14:22:42.488Z,68.25
2022-11-14T14:26:04.050Z,68.09
2022-11-14T14:27:43.738Z,67.88
2022-11-14T14:31:03.458Z,67.77
2022-11-14T14:32:29.617Z,67.87
2022-11-14T14:33:53.202Z,68.05
2022-11-14T14:35:37.110Z,68.26
2022-11-14T14:37:21.000Z,68.08
2022-11-14T14:38:41.046Z,68.35
2022-11-14T14:40:01.846Z,68.02
2022-11-14T14:41:21.653Z,68.45
2022-11-14T14:42:45.890Z,68.17
2022-11-14T14:44:05.869Z,68.33
2022-11-14T14:45:26.175Z,68.37
2022-11-14T14:46:46.206Z,68.61
2022-11-14T14:48:07.027Z,68.43
2022-11-14T14:49:44.970Z,68.35
2022-11-14T14:51:18.194Z,68.65
2022-11-14T14:52:39.315Z,68.36
2022-11-14T14:54:02.222Z,68.03
2022-11-14T14:55:27.775Z,68.59
2022-11-14T14:57:03.412Z,68.96
2022-11-14T14:58:23.540Z,69.05
2022-11-14T15:01:20.044Z,68.96
2022-11-14T15:03:00.778Z,69.16
2022-11-14T15:04:22.098Z,69.15
2022-11-14T15:05:44.298Z,69.21
2022-11-14T15:07:05.157Z,69.12
2022-11-14T15:08:25.400Z,69.43
2022-11-14T15:10:01.109Z,69.48
2022-11-14T15:11:21.168Z,69.60
2022-11-14T15:12:41.317Z,69.37
2022-11-14T15:14:11.705Z,68.68
2022-11-14T15:15:33.166Z,68.85
2022-11-14T15:16:56.383Z,69.24
2022-11-14T15:18:34.730Z,68.97
2022-11-14T15:20:00.213Z,69.32
2022-11-14T15:21:29.525Z,69.80
2022-11-14T15:23:02.576Z,70.22
2022-11-14T15:24:23.205Z,70.15
2022-11-14T15:25:46.384Z,70.43
2022-11-14T15:27:15.911Z,70.43
2022-11-14T15:28:35.856Z,70.68
2022-11-14T15:29:57.610Z,71.05
2022-11-14T15:31:20.532Z,70.54
2022-11-14T15:32:50.959Z,70.44
2022-11-14T15:34:31.200Z,70.47
2022-11-14T15:36:04.366Z,70.29
2022-11-14T15:37:28.366Z,70.63
2022-11-14T15:39:05.326Z,70.54
2022-11-14T15:40:25.444Z,70.45
2022-11-14T15:41:46.126Z,70.63
2022-11-14T15:43:24.751Z,70.65
2022-11-14T15:44:46.331Z,70.68
2022-11-14T15:46:31.663Z,71.30
2022-11-14T15:48:19.955Z,70.61
2022-11-14T15:49:40.198Z,70.84
2022-11-14T15:51:00.455Z,71.21
2022-11-14T15:52:41.092Z,71.38
2022-11-14T15:54:01.193Z,71.33
2022-11-14T15:55:24.375Z,71.44
2022-11-14T15:56:44.141Z,71.42
2022-11-14T15:58:27.002Z,71.49
2022-11-14T15:59:44.198Z,71.35
2022-11-14T16:01:04.592Z,71.35
2022-11-14T16:02:36.337Z,71.41
2022-11-14T16:04:04.526Z,71.51
2022-11-14T16:05:28.600Z,71.66
2022-11-14T16:06:49.044Z,71.67
2022-11-14T16:08:10.254Z,71.89
2022-11-14T16:09:33.073Z,71.86
2022-11-14T16:10:52.939Z,71.64
2022-11-14T16:12:25.750Z,71.62
2022-11-14T16:13:46.162Z,71.70
2022-11-14T16:15:06.627Z,72.13
2022-11-14T16:16:32.676Z,72.25
2022-11-14T16:18:01.393Z,72.08
2022-11-14T16:19:24.349Z,71.83
2022-11-14T16:20:44.451Z,71.95
2022-11-14T16:22:04.545Z,71.83
2022-11-14T16:23:37.966Z,72.12
2022-11-14T16:25:01.269Z,72.06
2022-11-14T16:26:41.086Z,71.67
2022-11-14T16:28:01.528Z,71.85
2022-11-14T16:29:21.501Z,71.32
2022-11-14T16:30:41.605Z,72.05
2022-11-14T16:32:03.043Z,71.75
2022-11-14T16:33:26.082Z,72.17
2022-11-14T16:34:48.467Z,72.25
2022-11-14T16:37:43.362Z,72.23
2022-11-14T16:39:17.887Z,72.49
2022-11-14T16:40:37.887Z,72.39
2022-11-14T16:42:01.859Z,72.09
2022-11-14T16:43:22.150Z,72.06
2022-11-14T16:44:50.320Z,72.28
2022-11-14T16:46:11.219Z,72.81
2022-11-14T16:47:32.052Z,73.27
2022-11-14T16:48:51.950Z,73.64
2022-11-14T16:50:18.443Z,73.54
2022-11-14T16:51:49.087Z,74.20
2022-11-14T16:53:16.738Z,73.86
2022-11-14T16:54:39.518Z,74.04
2022-11-14T16:55:59.452Z,73.98
2022-11-14T16:57:20.185Z,73.78
2022-11-14T16:58:41.951Z,73.07
2022-11-14T17:00:02.206Z,73.48
2022-11-14T17:01:34.573Z,73.70
2022-11-14T17:02:54.436Z,73.57
2022-11-14T17:04:14.436Z,73.93
2022-11-14T17:05:34.583Z,73.78
2022-11-14T17:06:55.319Z,73.72
2022-11-14T17:08:15.761Z,73.71
2022-11-14T17:09:35.749Z,73.91
2022-11-14T17:10:56.043Z,73.57
2022-11-14T17:12:16.158Z,73.61
2022-11-14T17:13:38.348Z,73.49
2022-11-14T17:14:58.420Z,73.17
2022-11-14T17:16:20.678Z,72.95
2022-11-14T17:17:42.967Z,73.10
2022-11-14T17:19:03.143Z,73.14
2022-11-14T17:20:23.370Z,73.30
2022-11-14T17:21:45.179Z,73.32
2022-11-14T17:23:05.179Z,73.67
2022-11-14T17:24:31.371Z,73.84
2022-11-14T17:25:54.182Z,73.65
2022-11-14T17:27:14.198Z,73.33
2022-11-14T17:28:34.358Z,73.43
2022-11-14T17:29:54.259Z,73.62
2022-11-14T17:31:21.583Z,73.64
2022-11-14T17:32:42.239Z,74.08
2022-11-14T17:34:02.999Z,73.89
2022-11-14T17:35:33.219Z,74.11
2022-11-14T17:36:54.237Z,74.44
2022-11-14T17:38:14.150Z,74.33
2022-11-14T17:39:35.138Z,74.18
2022-11-14T17:41:01.341Z,74.47
2022-11-14T17:42:24.159Z,74.42
2022-11-14T17:43:44.363Z,74.62
2022-11-14T17:45:04.889Z,74.52
2022-11-14T17:46:24.794Z,74.64
2022-11-14T17:47:44.874Z,74.56
2022-11-14T17:50:40.195Z,75.52
2022-11-14T17:52:02.757Z,75.51
2022-11-14T17:53:22.627Z,75.41
2022-11-14T17:54:50.053Z,75.59
2022-11-14T17:56:13.000Z,75.33
2022-11-14T17:57:35.652Z,74.82
2022-11-14T17:58:55.463Z,74.96
2022-11-14T18:00:18.418Z,74.68
2022-11-14T18:01:41.231Z,74.55
2022-11-14T18:03:01.289Z,74.89
2022-11-14T18:04:27.528Z,74.50
2022-11-14T18:05:51.227Z,74.70
2022-11-14T18:07:11.575Z,74.54
2022-11-14T18:08:34.009Z,75.23
2022-11-14T18:09:56.666Z,75.10
2022-11-14T18:11:19.442Z,75.13
2022-11-14T18:12:39.739Z,75.26
2022-11-14T18:13:59.642Z,75.17
2022-11-14T18:15:22.695Z,75.11
2022-11-14T18:17:11.678Z,75.12
2022-11-14T18:18:42.310Z,74.91
2022-11-14T18:20:02.310Z,75.00
2022-11-14T18:21:28.479Z,75.21
2022-11-14T18:22:50.313Z,75.17
2022-11-14T18:24:10.304Z,75.45